createdAt,value
2023-03-22T00:01:56.174Z,94648.47
2023-03-22T00:04:22.497Z,94640.72
2023-03-22T00:06:48.833Z,94644.50
2023-03-22T00:09:15.148Z,94647.81
2023-03-22T00:11:41.463Z,94648.09
2023-03-22T00:14:07.799Z,94639.72
2023-03-22T00:16:34.182Z,94641.81
2023-03-22T00:19:00.548Z,94633.81
2023-03-22T00:21:26.891Z,94628.81
2023-03-22T00:23:53.216Z,94617.94
2023-03-22T00:26:19.548Z,94624.22
2023-03-22T00:28:45.881Z,94622.47
2023-03-22T00:31:12.210Z,94629.47
2023-03-22T00:33:38.551Z,94623.09
2023-03-22T00:36:04.917Z,94621.91
2023-03-22T00:38:41.618Z,94621.13
2023-03-22T00:41:08.595Z,94614.81
2023-03-22T00:43:34.904Z,94621.91
2023-03-22T00:46:01.268Z,94618.50
2023-03-22T00:48:27.597Z,94612.66
2023-03-22T00:50:53.925Z,94619.94
2023-03-22T00:53:20.256Z,94609.81
2023-03-22T00:55:46.569Z,94611.03
2023-03-22T00:58:12.901Z,94602.22
2023-03-22T01:00:39.451Z,94605.63
2023-03-22T01:03:05.980Z,94608.19
2023-03-22T01:05:32.390Z,94606.84
2023-03-22T01:07:58.710Z,94600.13
2023-03-22T01:10:25.032Z,94593.97
2023-03-22T01:12:51.358Z,94589.88
2023-03-22T01:15:17.690Z,94594.84
2023-03-22T01:17:44.008Z,94586.44
2023-03-22T01:20:10.328Z,94586.94
2023-03-22T01:22:36.637Z,94585.03
2023-03-22T01:25:03.113Z,94591.75
2023-03-22T01:27:29.440Z,94590.22
2023-03-22T01:29:55.763Z,94586.38
2023-03-22T01:32:22.091Z,94588.03
2023-03-22T01:34:48.442Z,94575.38
2023-03-22T01:37:14.765Z,94578.47
2023-03-22T01:39:41.084Z,94582.47
2023-03-22T01:42:07.397Z,94577.28
2023-03-22T01:44:33.711Z,94569.34
2023-03-22T01:47:00.059Z,94569.06
2023-03-22T01:49:26.363Z,94565.06
2023-03-22T01:51:52.665Z,94562.03
2023-03-22T01:54:18.978Z,94560.84
2023-03-22T01:56:45.317Z,94561.34
2023-03-22T01:59:11.646Z,94568.78
2023-03-22T02:01:38.117Z,94562.75
2023-03-22T02:04:04.472Z,94565.81
2023-03-22T02:06:30.814Z,94558.66
2023-03-22T02:08:57.118Z,94559.97
2023-03-22T02:11:23.438Z,94551.81
2023-03-22T02:13:49.838Z,94556.41
2023-03-22T02:16:16.230Z,94551.34
2023-03-22T02:18:42.581Z,94550.06
2023-03-22T02:21:08.906Z,94545.94
2023-03-22T02:23:35.238Z,94540.22
2023-03-22T02:26:01.584Z,94541.69
2023-03-22T02:28:27.911Z,94537.94
2023-03-22T02:30:54.262Z,94536.06
2023-03-22T02:33:20.600Z,94537.88
2023-03-22T02:35:46.987Z,94540.78
2023-03-22T02:38:13.334Z,94535.19
2023-03-22T02:40:39.860Z,94533.22
2023-03-22T02:43:06.321Z,94537.28
2023-03-22T02:45:32.644Z,94539.22
2023-03-22T02:47:58.986Z,94538.53
2023-03-22T02:50:25.325Z,94546.47
2023-03-22T02:52:51.632Z,94546.16
2023-03-22T02:55:18.030Z,94549.66
2023-03-22T02:57:44.361Z,94549.38
2023-03-22T03:00:10.665Z,94551.94
2023-03-22T03:02:36.995Z,94541.97
2023-03-22T03:05:03.369Z,94555.66
2023-03-22T03:07:29.703Z,94551.41
2023-03-22T03:09:56.039Z,94552.94
2023-03-22T03:12:22.386Z,94555.59
2023-03-22T03:14:48.715Z,94560.03
2023-03-22T03:17:15.069Z,94552.34
2023-03-22T03:19:41.406Z,94546.75
2023-03-22T03:22:07.717Z,94558.69
2023-03-22T03:24:34.027Z,94554.09
2023-03-22T03:27:00.324Z,94554.63
2023-03-22T03:29:26.661Z,94550.19
2023-03-22T03:31:53.034Z,94551.84
2023-03-22T03:34:19.424Z,94545.59
2023-03-22T03:36:45.749Z,94548.22
2023-03-22T03:39:12.084Z,94544.94
2023-03-22T03:41:38.424Z,94547.53
2023-03-22T03:44:04.730Z,94548.69
2023-03-22T03:46:31.045Z,94540.41
2023-03-22T03:48:57.354Z,94539.34
2023-03-22T03:51:23.664Z,94546.34
2023-03-22T03:53:49.980Z,94547.59
2023-03-22T03:56:16.320Z,94551.38
2023-03-22T03:58:42.641Z,94558.19
2023-03-22T04:01:09.356Z,94564.63
2023-03-22T04:03:35.688Z,94562.72
2023-03-22T04:06:02.010Z,94561.41
2023-03-22T04:08:28.323Z,94562.72
2023-03-22T04:10:54.641Z,94557.94
2023-03-22T04:13:20.952Z,94568.91
2023-03-22T04:15:47.251Z,94558.97
2023-03-22T04:18:13.572Z,94565.53
2023-03-22T04:20:40.158Z,94565.22
2023-03-22T04:23:06.718Z,94560.34
2023-03-22T04:25:33.039Z,94565.59
2023-03-22T04:27:59.343Z,94555.44
2023-03-22T04:30:25.662Z,94562.97
2023-03-22T04:32:51.968Z,94555.63
2023-03-22T04:35:18.278Z,94559.06
2023-03-22T04:37:44.610Z,94554.13
2023-03-22T04:40:10.964Z,94551.19
2023-03-22T04:42:37.276Z,94552.19
2023-03-22T04:45:03.595Z,94552.19
2023-03-22T04:47:29.905Z,94553.47
2023-03-22T04:49:56.210Z,94547.09
2023-03-22T04:52:22.530Z,94554.63
2023-03-22T04:54:48.857Z,94556.28
2023-03-22T04:57:15.158Z,94555.47
2023-03-22T04:59:41.476Z,94552.19
2023-03-22T05:02:07.792Z,94548.25
2023-03-22T05:04:34.106Z,94548.06
2023-03-22T05:07:00.527Z,94548.41
2023-03-22T05:09:26.866Z,94540.38
2023-03-22T05:11:53.192Z,94545.63
2023-03-22T05:14:19.527Z,94549.38
2023-03-22T05:16:45.910Z,94552.66
2023-03-22T05:19:12.232Z,94557.41
2023-03-22T05:21:38.552Z,94559.88
2023-03-22T05:24:04.888Z,94557.91
2023-03-22T05:26:31.225Z,94556.09
2023-03-22T05:28:57.556Z,94563.47
2023-03-22T05:31:23.962Z,94559.69
2023-03-22T05:33:50.318Z,94562.97
2023-03-22T05:36:16.629Z,94560.53
2023-03-22T05:38:42.949Z,94564.28
2023-03-22T05:41:09.277Z,94563.28
2023-03-22T05:43:35.611Z,94566.38
2023-03-22T05:46:01.933Z,94571.31
2023-03-22T05:48:28.260Z,94573.59
2023-03-22T05:50:54.569Z,94563.78
2023-03-22T05:53:20.899Z,94568.88
2023-03-22T05:55:47.217Z,94568.88
2023-03-22T05:58:13.518Z,94563.63
2023-03-22T06:00:40.063Z,94564.59
2023-03-22T06:03:06.537Z,94562.94
2023-03-22T06:05:32.892Z,94569.16
2023-03-22T06:07:59.223Z,94568.84
2023-03-22T06:10:25.534Z,94569.50
2023-03-22T06:12:51.949Z,94571.78
2023-03-22T06:15:18.296Z,94574.41
2023-03-22T06:17:44.633Z,94577.69
2023-03-22T06:20:10.963Z,94575.91
2023-03-22T06:22:37.307Z,94577.38
2023-03-22T06:25:03.633Z,94581.00
2023-03-22T06:27:29.940Z,94583.63
2023-03-22T06:29:56.270Z,94573.44
2023-03-22T06:32:22.603Z,94570.03
2023-03-22T06:34:48.931Z,94573.47
2023-03-22T06:37:15.265Z,94583.13
2023-03-22T06:39:41.578Z,94583.28
2023-03-22T06:42:07.903Z,94576.38
2023-03-22T06:44:34.253Z,94579.63
2023-03-22T06:47:00.562Z,94580.59
2023-03-22T06:49:26.872Z,94576.94
2023-03-22T06:51:53.202Z,94574.28
2023-03-22T06:54:19.526Z,94578.97
2023-03-22T06:56:45.852Z,94583.97
2023-03-22T06:59:12.182Z,94576.34
2023-03-22T07:01:38.566Z,94582.84
2023-03-22T07:04:05.049Z,94579.97
2023-03-22T07:06:31.412Z,94571.75
2023-03-22T07:08:57.731Z,94571.53
2023-03-22T07:11:24.040Z,94578.03
2023-03-22T07:13:50.355Z,94585.53
2023-03-22T07:16:19.363Z,94582.09
2023-03-22T07:18:46.218Z,94584.31
2023-03-22T07:21:12.527Z,94582.44
2023-03-22T07:23:38.844Z,94591.13
2023-03-22T07:26:05.157Z,94584.97
2023-03-22T07:28:31.471Z,94584.09
2023-03-22T07:30:57.807Z,94585.53
2023-03-22T07:33:24.129Z,94580.56
2023-03-22T07:35:50.494Z,94587.75
2023-03-22T07:38:16.816Z,94580.31
2023-03-22T07:40:43.135Z,94587.56
2023-03-22T07:43:09.451Z,94590.38
2023-03-22T07:45:35.769Z,94593.81
2023-03-22T07:48:02.148Z,94594.00
2023-03-22T07:50:28.510Z,94604.63
2023-03-22T07:52:54.862Z,94594.72
2023-03-22T07:55:21.174Z,94594.06
2023-03-22T07:57:47.498Z,94597.34
2023-03-22T08:00:13.815Z,94601.13
2023-03-22T08:02:40.214Z,94596.88
2023-03-22T08:05:06.571Z,94592.97
2023-03-22T08:07:32.890Z,94592.41
2023-03-22T08:09:59.422Z,94595.13
2023-03-22T08:12:25.744Z,94599.91
2023-03-22T08:14:52.082Z,94599.91
2023-03-22T08:17:18.402Z,94608.09
2023-03-22T08:19:44.733Z,94601.09
2023-03-22T08:22:11.047Z,94592.03
2023-03-22T08:24:37.402Z,94594.19
2023-03-22T08:27:03.745Z,94590.63
2023-03-22T08:29:30.257Z,94587.44
2023-03-22T08:31:56.585Z,94587.31
2023-03-22T08:34:22.933Z,94583.72
2023-03-22T08:36:49.266Z,94584.53
2023-03-22T08:39:15.606Z,94589.44
2023-03-22T08:41:41.944Z,94588.28
2023-03-22T08:44:08.252Z,94583.66
2023-03-22T08:46:34.609Z,94582.88
2023-03-22T08:49:00.927Z,94579.28
2023-03-22T08:51:27.247Z,94576.88
2023-03-22T08:53:53.558Z,94578.56
2023-03-22T08:56:19.883Z,94588.38
2023-03-22T08:58:46.216Z,94590.06
2023-03-22T09:01:12.640Z,94596.09
2023-03-22T09:03:39.009Z,94592.22
2023-03-22T09:06:05.330Z,94593.22
2023-03-22T09:08:31.668Z,94594.22
2023-03-22T09:10:57.979Z,94585.16
2023-03-22T09:13:24.305Z,94586.41
2023-03-22T09:15:50.645Z,94587.84
2023-03-22T09:18:16.962Z,94581.78
2023-03-22T09:20:43.650Z,94576.34
2023-03-22T09:23:10.021Z,94573.25
2023-03-22T09:25:36.353Z,94581.00
2023-03-22T09:28:02.673Z,94579.59
2023-03-22T09:30:29.022Z,94579.66
2023-03-22T09:32:55.386Z,94576.59
2023-03-22T09:35:21.746Z,94579.50
2023-03-22T09:37:48.090Z,94576.06
2023-03-22T09:40:14.405Z,94580.56
2023-03-22T09:42:40.709Z,94568.38
2023-03-22T09:45:07.042Z,94567.16
2023-03-22T09:47:44.448Z,94562.72
2023-03-22T09:50:11.310Z,94565.75
2023-03-22T09:52:38.709Z,94554.34
2023-03-22T09:55:05.010Z,94551.13
2023-03-22T09:57:31.342Z,94555.44
2023-03-22T09:59:57.677Z,94555.22
2023-03-22T10:02:24.105Z,94556.03
2023-03-22T10:04:50.467Z,94549.13
2023-03-22T10:07:16.770Z,94548.53
2023-03-22T10:09:43.094Z,94560.34
2023-03-22T10:12:09.431Z,94549.34
2023-03-22T10:14:35.768Z,94553.81
2023-03-22T10:17:02.108Z,94552.81
2023-03-22T10:19:28.430Z,94549.31
2023-03-22T10:21:54.740Z,94545.22
2023-03-22T10:24:21.083Z,94547.25
2023-03-22T10:26:47.610Z,94544.84
2023-03-22T10:29:13.950Z,94540.78
2023-03-22T10:31:40.305Z,94541.75
2023-03-22T10:34:06.639Z,94538.09
2023-03-22T10:36:32.960Z,94539.31
2023-03-22T10:38:59.272Z,94535.63
2023-03-22T10:41:25.615Z,94539.88
2023-03-22T10:43:51.954Z,94533.72
2023-03-22T10:46:18.399Z,94538.63
2023-03-22T10:48:44.794Z,94527.97
2023-03-22T10:51:11.121Z,94524.53
2023-03-22T10:53:37.448Z,94525.09
2023-03-22T10:56:03.783Z,94521.00
2023-03-22T10:58:30.111Z,94510.88
2023-03-22T11:00:56.594Z,94503.03
2023-03-22T11:03:23.042Z,94503.16
2023-03-22T11:05:49.378Z,94506.47
2023-03-22T11:08:15.708Z,94499.13
2023-03-22T11:10:42.119Z,94500.69
2023-03-22T11:13:08.466Z,94493.31
2023-03-22T11:15:34.796Z,94499.84
2023-03-22T11:18:01.128Z,94490.44
2023-03-22T11:20:29.224Z,94487.13
2023-03-22T11:22:56.219Z,94485.25
2023-03-22T11:25:22.534Z,94488.31
2023-03-22T11:27:48.858Z,94485.00
2023-03-22T11:30:15.162Z,94485.56
2023-03-22T11:32:41.549Z,94487.75
2023-03-22T11:35:07.909Z,94479.69
2023-03-22T11:37:34.228Z,94486.72
2023-03-22T11:40:00.562Z,94480.44
2023-03-22T11:42:26.917Z,94477.31
2023-03-22T11:44:53.250Z,94481.91
2023-03-22T11:47:19.577Z,94484.50
2023-03-22T11:49:45.893Z,94476.47
2023-03-22T11:52:12.225Z,94469.84
2023-03-22T11:54:38.546Z,94471.34
2023-03-22T11:57:04.866Z,94467.28
2023-03-22T11:59:31.207Z,94462.66
2023-03-22T12:01:57.532Z,94459.50
2023-03-22T12:04:23.879Z,94455.00
2023-03-22T12:06:50.377Z,94452.25
2023-03-22T12:09:16.735Z,94445.09
2023-03-22T12:11:43.062Z,94443.63
2023-03-22T12:14:09.402Z,94434.00
2023-03-22T12:16:35.879Z,94433.59
2023-03-22T12:19:02.262Z,94428.84
2023-03-22T12:21:28.595Z,94431.75
2023-03-22T12:23:54.899Z,94431.06
2023-03-22T12:26:21.210Z,94427.00
2023-03-22T12:28:47.539Z,94435.78
2023-03-22T12:31:13.914Z,94422.19
2023-03-22T12:33:40.278Z,94426.06
2023-03-22T12:36:06.649Z,94412.19
2023-03-22T12:38:32.997Z,94417.78
2023-03-22T12:40:59.306Z,94412.09
2023-03-22T12:43:25.629Z,94409.09
2023-03-22T12:45:51.933Z,94404.59
2023-03-22T12:48:18.340Z,94409.34
2023-03-22T12:50:44.727Z,94405.31
2023-03-22T12:53:11.065Z,94402.16
2023-03-22T12:55:37.374Z,94401.72
2023-03-22T12:58:03.696Z,94395.81
2023-03-22T13:00:30.048Z,94405.31
2023-03-22T13:02:56.467Z,94392.00
2023-03-22T13:05:22.828Z,94399.84
2023-03-22T13:07:49.157Z,94391.84
2023-03-22T13:10:15.474Z,94393.25
2023-03-22T13:12:41.777Z,94399.88
2023-03-22T13:15:08.115Z,94391.75
2023-03-22T13:17:34.455Z,94390.81
2023-03-22T13:20:00.792Z,94386.44
2023-03-22T13:22:27.134Z,94376.28
2023-03-22T13:24:53.433Z,94382.16
2023-03-22T13:27:19.738Z,94370.59
2023-03-22T13:29:46.101Z,94366.50
2023-03-22T13:32:12.481Z,94359.41
2023-03-22T13:34:38.897Z,94347.56
2023-03-22T13:37:05.218Z,94347.13
2023-03-22T13:39:31.580Z,94340.72
2023-03-22T13:41:57.907Z,94345.69
2023-03-22T13:44:24.245Z,94336.88
2023-03-22T13:46:50.551Z,94338.78
2023-03-22T13:49:17.146Z,94325.56
2023-03-22T13:51:43.540Z,94328.16
2023-03-22T13:54:09.848Z,94329.16
2023-03-22T13:56:36.180Z,94330.25
2023-03-22T13:59:02.491Z,94324.22
2023-03-22T14:01:28.834Z,94327.13
2023-03-22T14:03:55.240Z,94327.94
2023-03-22T14:06:21.583Z,94326.50
2023-03-22T14:08:47.903Z,94315.88
2023-03-22T14:11:14.222Z,94318.00
2023-03-22T14:13:40.532Z,94316.59
2023-03-22T14:16:06.911Z,94315.56
2023-03-22T14:18:33.253Z,94320.31
2023-03-22T14:20:59.625Z,94307.66
